sensor_id;sensor_type;location;lat;lon;timestamp;pressure;altitude;pressure_sealevel;temperature;humidity
13952;BME280;39535;52.192;9.886;2022-09-09T00:00:13;99846.56;;;15.28;92.71
13952;BME280;39535;52.192;9.886;2022-09-09T00:02:43;99829.84;;;15.29;92.88
13952;BME280;39535;52.192;9.886;2022-09-09T00:05:18;99836.13;;;15.27;92.97
13952;BME280;39535;52.192;9.886;2022-09-09T00:07:54;99831.09;;;15.22;93.21
13952;BME280;39535;52.192;9.886;2022-09-09T00:10:26;99824.28;;;15.18;93.31
13952;BME280;39535;52.192;9.886;2022-09-09T00:12:58;99821.56;;;15.20;93.07
13952;BME280;39535;52.192;9.886;2022-09-09T00:15:30;99826.19;;;15.15;93.07
13952;BME280;39535;52.192;9.886;2022-09-09T00:18:03;99824.28;;;15.18;93.13
13952;BME280;39535;52.192;9.886;2022-09-09T00:20:38;99820.00;;;15.16;93.39
13952;BME280;39535;52.192;9.886;2022-09-09T00:23:12;99820.84;;;15.16;93.28
13952;BME280;39535;52.192;9.886;2022-09-09T00:25:45;99813.41;;;15.07;93.18
13952;BME280;39535;52.192;9.886;2022-09-09T00:28:18;99814.41;;;15.04;93.65
13952;BME280;39535;52.192;9.886;2022-09-09T00:30:46;99818.75;;;15.05;93.05
13952;BME280;39535;52.192;9.886;2022-09-09T00:33:16;99812.63;;;15.05;93.29
13952;BME280;39535;52.192;9.886;2022-09-09T00:35:45;99809.22;;;15.03;93.47
13952;BME280;39535;52.192;9.886;2022-09-09T00:38:15;99804.81;;;15.03;93.68
13952;BME280;39535;52.192;9.886;2022-09-09T00:40:50;99802.47;;;14.97;93.94
13952;BME280;39535;52.192;9.886;2022-09-09T00:43:28;99786.78;;;14.96;94.46
13952;BME280;39535;52.192;9.886;2022-09-09T00:46:06;99786.47;;;15.02;94.29
13952;BME280;39535;52.192;9.886;2022-09-09T00:48:45;99789.28;;;14.99;94.58
13952;BME280;39535;52.192;9.886;2022-09-09T00:51:16;99781.59;;;14.94;94.75
13952;BME280;39535;52.192;9.886;2022-09-09T00:54:04;99781.75;;;14.91;94.75
13952;BME280;39535;52.192;9.886;2022-09-09T00:56:40;99780.97;;;14.89;94.39
13952;BME280;39535;52.192;9.886;2022-09-09T00:59:18;99795.03;;;14.88;93.85
13952;BME280;39535;52.192;9.886;2022-09-09T01:01:47;99794.41;;;14.83;93.79
13952;BME280;39535;52.192;9.886;2022-09-09T01:04:19;99792.63;;;14.83;94.11
13952;BME280;39535;52.192;9.886;2022-09-09T01:06:55;99804.91;;;14.83;93.68
13952;BME280;39535;52.192;9.886;2022-09-09T01:09:30;99825.44;;;14.75;93.43
13952;BME280;39535;52.192;9.886;2022-09-09T01:12:09;99820.31;;;14.72;93.39
13952;BME280;39535;52.192;9.886;2022-09-09T01:14:42;99817.97;;;14.65;93.69
13952;BME280;39535;52.192;9.886;2022-09-09T01:17:14;99817.03;;;14.66;93.70
13952;BME280;39535;52.192;9.886;2022-09-09T01:19:51;99824.06;;;14.66;93.59
13952;BME280;39535;52.192;9.886;2022-09-09T01:22:28;99833.84;;;14.62;93.16
13952;BME280;39535;52.192;9.886;2022-09-09T01:25:28;99827.81;;;14.60;93.06
13952;BME280;39535;52.192;9.886;2022-09-09T01:27:58;99817.31;;;14.60;93.59
13952;BME280;39535;52.192;9.886;2022-09-09T01:30:27;99810.50;;;14.56;93.29
13952;BME280;39535;52.192;9.886;2022-09-09T01:32:55;99808.72;;;14.57;93.42
13952;BME280;39535;52.192;9.886;2022-09-09T01:35:31;99812.13;;;14.59;93.31
13952;BME280;39535;52.192;9.886;2022-09-09T01:38:00;99812.13;;;14.59;93.13
13952;BME280;39535;52.192;9.886;2022-09-09T01:40:27;99817.50;;;14.56;92.81
13952;BME280;39535;52.192;9.886;2022-09-09T01:42:55;99821.91;;;14.55;93.00
13952;BME280;39535;52.192;9.886;2022-09-09T01:45:23;99813.25;;;14.53;93.42
13952;BME280;39535;52.192;9.886;2022-09-09T01:47:50;99816.78;;;14.52;92.87
13952;BME280;39535;52.192;9.886;2022-09-09T01:50:18;99815.28;;;14.46;93.25
13952;BME280;39535;52.192;9.886;2022-09-09T01:52:48;99818.69;;;14.48;93.29
13952;BME280;39535;52.192;9.886;2022-09-09T01:55:16;99819.63;;;14.47;93.29
13952;BME280;39535;52.192;9.886;2022-09-09T01:57:51;99824.94;;;14.46;93.11
13952;BME280;39535;52.192;9.886;2022-09-09T02:00:23;99824.22;;;14.42;93.15
13952;BME280;39535;52.192;9.886;2022-09-09T02:02:56;99818.84;;;14.45;93.34
13952;BME280;39535;52.192;9.886;2022-09-09T02:05:34;99821.53;;;14.44;92.93
13952;BME280;39535;52.192;9.886;2022-09-09T02:08:06;99823.16;;;14.46;93.24
13952;BME280;39535;52.192;9.886;2022-09-09T02:10:37;99822.19;;;14.49;92.88
13952;BME280;39535;52.192;9.886;2022-09-09T02:13:10;99825.50;;;14.53;92.93
13952;BME280;39535;52.192;9.886;2022-09-09T02:15:44;99829.97;;;14.50;93.01
13952;BME280;39535;52.192;9.886;2022-09-09T02:18:13;99818.69;;;14.48;92.80
13952;BME280;39535;52.192;9.886;2022-09-09T02:20:43;99818.56;;;14.52;93.41
13952;BME280;39535;52.192;9.886;2022-09-09T02:23:12;99817.56;;;14.54;93.39
13952;BME280;39535;52.192;9.886;2022-09-09T02:25:41;99814.38;;;14.47;93.27
13952;BME280;39535;52.192;9.886;2022-09-09T02:28:10;99820.25;;;14.53;93.17
13952;BME280;39535;52.192;9.886;2022-09-09T02:30:41;99817.47;;;14.57;93.08
13952;BME280;39535;52.192;9.886;2022-09-09T02:33:10;99827.88;;;14.59;92.26
13952;BME280;39535;52.192;9.886;2022-09-09T02:35:38;99834.13;;;14.56;92.38
13952;BME280;39535;52.192;9.886;2022-09-09T02:38:09;99831.50;;;14.56;92.58
13952;BME280;39535;52.192;9.886;2022-09-09T02:40:37;99820.09;;;14.57;92.46
13952;BME280;39535;52.192;9.886;2022-09-09T02:43:04;99824.47;;;14.57;92.52
13952;BME280;39535;52.192;9.886;2022-09-09T02:45:36;99811.41;;;14.55;92.91
13952;BME280;39535;52.192;9.886;2022-09-09T02:48:11;99806.09;;;14.57;92.97
13952;BME280;39535;52.192;9.886;2022-09-09T02:50:45;99819.81;;;14.63;92.58
13952;BME280;39535;52.192;9.886;2022-09-09T02:53:21;99810.22;;;14.62;93.12
13952;BME280;39535;52.192;9.886;2022-09-09T02:55:53;99808.38;;;14.64;93.30
13952;BME280;39535;52.192;9.886;2022-09-09T02:58:22;99785.66;;;14.63;93.92
13952;BME280;39535;52.192;9.886;2022-09-09T03:00:50;99787.22;;;14.67;94.12
13952;BME280;39535;52.192;9.886;2022-09-09T03:03:19;99764.31;;;14.71;94.62
13952;BME280;39535;52.192;9.886;2022-09-09T03:05:47;99767.66;;;14.75;94.69
13952;BME280;39535;52.192;9.886;2022-09-09T03:08:14;99761.81;;;14.68;95.01
13952;BME280;39535;52.192;9.886;2022-09-09T03:10:40;99758.16;;;14.70;94.74
13952;BME280;39535;52.192;9.886;2022-09-09T03:13:07;99777.44;;;14.71;94.51
13952;BME280;39535;52.192;9.886;2022-09-09T03:15:34;99774.09;;;14.67;94.65
13952;BME280;39535;52.192;9.886;2022-09-09T03:18:01;99777.63;;;14.66;94.79
13952;BME280;39535;52.192;9.886;2022-09-09T03:20:29;99769.63;;;14.69;95.62
13952;BME280;39535;52.192;9.886;2022-09-09T03:22:57;99767.00;;;14.69;95.46
13952;BME280;39535;52.192;9.886;2022-09-09T03:25:25;99753.38;;;14.61;96.35
13952;BME280;39535;52.192;9.886;2022-09-09T03:27:52;99732.91;;;14.68;96.62
13952;BME280;39535;52.192;9.886;2022-09-09T03:30:20;99722.88;;;14.76;96.75
13952;BME280;39535;52.192;9.886;2022-09-09T03:32:46;99735.03;;;14.79;96.88
13952;BME280;39535;52.192;9.886;2022-09-09T03:35:13;99722.53;;;14.84;97.00
13952;BME280;39535;52.192;9.886;2022-09-09T03:37:41;99714.69;;;14.82;97.74
13952;BME280;39535;52.192;9.886;2022-09-09T03:40:09;99724.25;;;14.85;97.05
13952;BME280;39535;52.192;9.886;2022-09-09T03:42:36;99709.38;;;14.84;97.45
13952;BME280;39535;52.192;9.886;2022-09-09T03:45:03;99708.84;;;14.77;97.96
13952;BME280;39535;52.192;9.886;2022-09-09T03:47:30;99714.56;;;14.85;97.28
13952;BME280;39535;52.192;9.886;2022-09-09T03:49:56;99724.72;;;14.74;97.01
13952;BME280;39535;52.192;9.886;2022-09-09T03:52:23;99721.59;;;14.85;97.49
13952;BME280;39535;52.192;9.886;2022-09-09T03:54:52;99750.41;;;14.86;96.31
13952;BME280;39535;52.192;9.886;2022-09-09T03:57:19;99747.59;;;14.91;96.58
13952;BME280;39535;52.192;9.886;2022-09-09T03:59:45;99748.13;;;14.98;96.56
13952;BME280;39535;52.192;9.886;2022-09-09T04:02:12;99726.34;;;14.96;97.50
13952;BME280;39535;52.192;9.886;2022-09-09T04:04:38;99717.44;;;14.98;97.69
13952;BME280;39535;52.192;9.886;2022-09-09T04:07:05;99725.13;;;15.03;97.62
13952;BME280;39535;52.192;9.886;2022-09-09T04:09:32;99732.38;;;14.98;97.83
13952;BME280;39535;52.192;9.886;2022-09-09T04:12:00;99757.81;;;14.97;96.26
13952;BME280;39535;52.192;9.886;2022-09-09T04:14:26;99777.53;;;15.06;95.79
13952;BME280;39535;52.192;9.886;2022-09-09T04:16:54;99773.69;;;15.13;95.89
13952;BME280;39535;52.192;9.886;2022-09-09T04:19:22;99773.38;;;15.19;96.45
13952;BME280;39535;52.192;9.886;2022-09-09T04:21:49;99750.88;;;15.14;97.39
13952;BME280;39535;52.192;9.886;2022-09-09T04:24:17;99738.56;;;15.14;97.51
13952;BME280;39535;52.192;9.886;2022-09-09T04:26:43;99741.91;;;15.18;97.83
13952;BME280;39535;52.192;9.886;2022-09-09T04:29:11;99729.91;;;15.12;97.87
13952;BME280;39535;52.192;9.886;2022-09-09T04:31:38;99743.75;;;15.16;97.95
13952;BME280;39535;52.192;9.886;2022-09-09T04:34:07;99736.56;;;15.19;97.87
13952;BME280;39535;52.192;9.886;2022-09-09T04:36:33;99747.03;;;15.21;97.69
13952;BME280;39535;52.192;9.886;2022-09-09T04:39:00;99742.97;;;15.14;98.03
13952;BME280;39535;52.192;9.886;2022-09-09T04:41:27;99753.44;;;15.15;97.72
13952;BME280;39535;52.192;9.886;2022-09-09T04:43:54;99756.91;;;15.16;97.44
13952;BME280;39535;52.192;9.886;2022-09-09T04:46:22;99755.03;;;15.18;97.56
13952;BME280;39535;52.192;9.886;2022-09-09T04:48:48;99761.78;;;15.23;97.48
13952;BME280;39535;52.192;9.886;2022-09-09T04:51:17;99755.63;;;15.24;97.66
13952;BME280;39535;52.192;9.886;2022-09-09T04:53:48;99753.91;;;15.23;98.01
13952;BME280;39535;52.192;9.886;2022-09-09T04:56:17;99750.50;;;15.21;97.91
13952;BME280;39535;52.192;9.886;2022-09-09T04:58:44;99743.63;;;15.19;98.45
13952;BME280;39535;52.192;9.886;2022-09-09T05:01:12;99739.22;;;15.19;98.86
13952;BME280;39535;52.192;9.886;2022-09-09T05:03:40;99734.78;;;15.20;98.98
13952;BME280;39535;52.192;9.886;2022-09-09T05:06:08;99746.78;;;15.25;98.74
13952;BME280;39535;52.192;9.886;2022-09-09T05:08:36;99752.13;;;15.24;98.69
13952;BME280;39535;52.192;9.886;2022-09-09T05:11:02;99748.41;;;15.28;98.52
13952;BME280;39535;52.192;9.886;2022-09-09T05:13:29;99755.25;;;15.32;98.38
13952;BME280;39535;52.192;9.886;2022-09-09T05:15:57;99745.78;;;15.28;99.50
13952;BME280;39535;52.192;9.886;2022-09-09T05:18:23;99740.44;;;15.29;99.37
13952;BME280;39535;52.192;9.886;2022-09-09T05:20:51;99741.91;;;15.35;99.38
13952;BME280;39535;52.192;9.886;2022-09-09T05:23:18;99744.47;;;15.37;99.31
13952;BME280;39535;52.192;9.886;2022-09-09T05:25:54;99749.50;;;15.41;98.87
13952;BME280;39535;52.192;9.886;2022-09-09T05:28:22;99760.34;;;15.35;98.49
13952;BME280;39535;52.192;9.886;2022-09-09T05:30:55;99758.41;;;15.39;98.77
13952;BME280;39535;52.192;9.886;2022-09-09T05:33:22;99753.75;;;15.44;98.71
13952;BME280;39535;52.192;9.886;2022-09-09T05:35:56;99753.53;;;15.48;98.66
13952;BME280;39535;52.192;9.886;2022-09-09T05:38:23;99763.13;;;15.49;98.47
13952;BME280;39535;52.192;9.886;2022-09-09T05:40:50;99765.44;;;15.56;98.47
13952;BME280;39535;52.192;9.886;2022-09-09T05:43:17;99772.09;;;15.63;98.32
13952;BME280;39535;52.192;9.886;2022-09-09T05:45:43;99763.28;;;15.64;98.89
13952;BME280;39535;52.192;9.886;2022-09-09T05:48:12;99788.72;;;15.63;97.29
13952;BME280;39535;52.192;9.886;2022-09-09T05:50:40;99797.19;;;15.70;97.18
13952;BME280;39535;52.192;9.886;2022-09-09T05:53:08;99810.56;;;15.65;96.77
13952;BME280;39535;52.192;9.886;2022-09-09T05:55:34;99807.72;;;15.70;97.10
13952;BME280;39535;52.192;9.886;2022-09-09T05:58:01;99817.97;;;15.76;96.72
13952;BME280;39535;52.192;9.886;2022-09-09T06:00:27;99842.34;;;15.80;95.89
13952;BME280;39535;52.192;9.886;2022-09-09T06:02:56;99820.28;;;15.82;96.17
13952;BME280;39535;52.192;9.886;2022-09-09T06:05:23;99845.88;;;15.79;95.51
13952;BME280;39535;52.192;9.886;2022-09-09T06:07:52;99854.63;;;15.79;94.75
13952;BME280;39535;52.192;9.886;2022-09-09T06:10:20;99872.75;;;15.85;94.19
13952;BME280;39535;52.192;9.886;2022-09-09T06:12:52;99868.09;;;15.91;94.71
13952;BME280;39535;52.192;9.886;2022-09-09T06:15:19;99864.25;;;15.98;95.00
13952;BME280;39535;52.192;9.886;2022-09-09T06:17:46;99820.28;;;16.00;97.24
13952;BME280;39535;52.192;9.886;2022-09-09T06:20:12;99821.63;;;16.07;96.85
13952;BME280;39535;52.192;9.886;2022-09-09T06:22:39;99830.16;;;16.12;96.28
13952;BME280;39535;52.192;9.886;2022-09-09T06:25:08;99828.13;;;16.17;96.50
13952;BME280;39535;52.192;9.886;2022-09-09T06:27:36;99810.38;;;16.21;96.91
13952;BME280;39535;52.192;9.886;2022-09-09T06:30:03;99800.41;;;16.27;97.51
13952;BME280;39535;52.192;9.886;2022-09-09T06:32:29;99809.75;;;16.33;96.75
13952;BME280;39535;52.192;9.886;2022-09-09T06:34:56;99814.47;;;16.44;96.55
13952;BME280;39535;52.192;9.886;2022-09-09T06:37:23;99794.75;;;16.35;97.23
13952;BME280;39535;52.192;9.886;2022-09-09T06:39:51;99819.88;;;16.41;96.87
13952;BME280;39535;52.192;9.886;2022-09-09T06:42:17;99844.28;;;16.44;94.66
13952;BME280;39535;52.192;9.886;2022-09-09T06:44:45;99837.59;;;16.55;95.59
13952;BME280;39535;52.192;9.886;2022-09-09T06:47:11;99898.19;;;16.55;92.56
13952;BME280;39535;52.192;9.886;2022-09-09T06:49:38;99912.81;;;16.60;92.54
13952;BME280;39535;52.192;9.886;2022-09-09T06:52:04;99883.34;;;16.70;93.82
13952;BME280;39535;52.192;9.886;2022-09-09T06:54:31;99872.06;;;16.67;93.01
13952;BME280;39535;52.192;9.886;2022-09-09T06:56:57;99875.38;;;16.71;93.78
13952;BME280;39535;52.192;9.886;2022-09-09T06:59:25;99909.72;;;16.70;91.29
13952;BME280;39535;52.192;9.886;2022-09-09T07:01:53;99932.00;;;16.80;90.99
13952;BME280;39535;52.192;9.886;2022-09-09T07:04:20;99876.66;;;16.80;95.07
13952;BME280;39535;52.192;9.886;2022-09-09T07:06:46;99886.84;;;16.70;92.91
13952;BME280;39535;52.192;9.886;2022-09-09T07:09:14;99980.25;;;16.64;88.57
13952;BME280;39535;52.192;9.886;2022-09-09T07:11:42;100009.53;;;16.76;88.44
13952;BME280;39535;52.192;9.886;2022-09-09T07:14:09;99951.63;;;16.74;91.47
13952;BME280;39535;52.192;9.886;2022-09-09T07:16:38;99988.47;;;16.76;88.93
13952;BME280;39535;52.192;9.886;2022-09-09T07:19:06;99990.47;;;16.88;89.32
13952;BME280;39535;52.192;9.886;2022-09-09T07:21:33;99964.66;;;16.95;90.69
13952;BME280;39535;52.192;9.886;2022-09-09T07:24:00;99971.56;;;16.97;89.75
13952;BME280;39535;52.192;9.886;2022-09-09T07:26:27;99992.66;;;16.97;88.68
13952;BME280;39535;52.192;9.886;2022-09-09T07:28:55;100031.66;;;16.91;86.74
13952;BME280;39535;52.192;9.886;2022-09-09T07:31:24;100075.69;;;16.88;85.50
13952;BME280;39535;52.192;9.886;2022-09-09T07:33:51;100068.88;;;17.02;86.29
13952;BME280;39535;52.192;9.886;2022-09-09T07:36:21;100050.09;;;17.08;87.18
13952;BME280;39535;52.192;9.886;2022-09-09T07:38:49;100039.22;;;17.14;87.20
13952;BME280;39535;52.192;9.886;2022-09-09T07:41:19;100050.72;;;17.13;85.84
13952;BME280;39535;52.192;9.886;2022-09-09T07:43:47;100059.63;;;17.11;86.03
13952;BME280;39535;52.192;9.886;2022-09-09T07:46:15;100081.50;;;17.13;85.87
13952;BME280;39535;52.192;9.886;2022-09-09T07:48:43;100089.94;;;17.19;85.00
13952;BME280;39535;52.192;9.886;2022-09-09T07:51:12;100117.72;;;17.26;83.65
13952;BME280;39535;52.192;9.886;2022-09-09T07:53:41;100143.28;;;17.42;83.49
13952;BME280;39535;52.192;9.886;2022-09-09T07:56:10;100129.19;;;17.43;83.29
13952;BME280;39535;52.192;9.886;2022-09-09T07:58:37;100123.50;;;17.51;84.50
13952;BME280;39535;52.192;9.886;2022-09-09T08:01:09;100113.88;;;17.50;85.26
13952;BME280;39535;52.192;9.886;2022-09-09T08:03:37;100112.34;;;17.61;84.00
13952;BME280;39535;52.192;9.886;2022-09-09T08:06:05;100160.81;;;17.60;82.83
13952;BME280;39535;52.192;9.886;2022-09-09T08:08:32;100091.16;;;17.63;85.12
13952;BME280;39535;52.192;9.886;2022-09-09T08:11:05;100152.91;;;17.60;82.57
13952;BME280;39535;52.192;9.886;2022-09-09T08:13:33;100145.66;;;17.64;83.29
13952;BME280;39535;52.192;9.886;2022-09-09T08:16:09;100106.88;;;17.82;84.98
13952;BME280;39535;52.192;9.886;2022-09-09T08:18:36;100086.88;;;17.94;84.83
13952;BME280;39535;52.192;9.886;2022-09-09T08:21:08;100161.44;;;17.99;81.94
13952;BME280;39535;52.192;9.886;2022-09-09T08:23:37;100199.09;;;18.02;80.45
13952;BME280;39535;52.192;9.886;2022-09-09T08:26:07;100212.31;;;18.02;79.79
13952;BME280;39535;52.192;9.886;2022-09-09T08:28:35;100236.41;;;17.96;79.95
13952;BME280;39535;52.192;9.886;2022-09-09T08:31:10;100203.91;;;18.12;81.34
13952;BME280;39535;52.192;9.886;2022-09-09T08:33:38;100248.88;;;18.10;79.36
13952;BME280;39535;52.192;9.886;2022-09-09T08:36:05;100252.66;;;18.22;79.42
13952;BME280;39535;52.192;9.886;2022-09-09T08:38:32;100215.16;;;18.31;80.58
13952;BME280;39535;52.192;9.886;2022-09-09T08:41:11;100187.03;;;18.46;81.26
13952;BME280;39535;52.192;9.886;2022-09-09T08:43:41;100157.88;;;18.48;82.53
13952;BME280;39535;52.192;9.886;2022-09-09T08:46:12;100174.84;;;18.59;80.98
13952;BME280;39535;52.192;9.886;2022-09-09T08:48:50;100241.94;;;18.73;78.95
13952;BME280;39535;52.192;9.886;2022-09-09T08:51:23;100298.72;;;18.83;77.08
13952;BME280;39535;52.192;9.886;2022-09-09T08:53:52;100281.13;;;18.98;77.90
13952;BME280;39535;52.192;9.886;2022-09-09T08:56:23;100332.56;;;19.08;76.59
13952;BME280;39535;52.192;9.886;2022-09-09T08:58:52;100373.88;;;19.11;74.95
13952;BME280;39535;52.192;9.886;2022-09-09T09:01:32;100351.34;;;19.19;76.22
13952;BME280;39535;52.192;9.886;2022-09-09T09:04:07;100386.59;;;19.20;74.92
13952;BME280;39535;52.192;9.886;2022-09-09T09:06:44;100401.72;;;19.18;74.45
13952;BME280;39535;52.192;9.886;2022-09-09T09:09:20;100404.34;;;19.18;74.68
13952;BME280;39535;52.192;9.886;2022-09-09T09:11:51;100369.78;;;19.21;74.55
13952;BME280;39535;52.192;9.886;2022-09-09T09:14:20;100385.41;;;19.10;73.64
13952;BME280;39535;52.192;9.886;2022-09-09T09:16:51;100355.53;;;19.23;75.56
13952;BME280;39535;52.192;9.886;2022-09-09T09:19:19;100342.28;;;19.39;75.32
13952;BME280;39535;52.192;9.886;2022-09-09T09:21:50;100363.69;;;19.51;74.38
13952;BME280;39535;52.192;9.886;2022-09-09T09:24:20;100366.47;;;19.63;73.76
13952;BME280;39535;52.192;9.886;2022-09-09T09:26:51;100404.16;;;19.69;73.59
13952;BME280;39535;52.192;9.886;2022-09-09T09:29:19;100453.59;;;19.68;71.46
13952;BME280;39535;52.192;9.886;2022-09-09T09:31:50;100455.25;;;19.71;71.32
13952;BME280;39535;52.192;9.886;2022-09-09T09:34:19;100445.25;;;19.76;71.88
13952;BME280;39535;52.192;9.886;2022-09-09T09:36:52;100404.63;;;19.91;72.91
13952;BME280;39535;52.192;9.886;2022-09-09T09:39:24;100403.81;;;20.05;72.62
13952;BME280;39535;52.192;9.886;2022-09-09T09:41:52;100407.31;;;20.06;72.29
13952;BME280;39535;52.192;9.886;2022-09-09T09:44:23;100413.22;;;20.11;72.21
13952;BME280;39535;52.192;9.886;2022-09-09T09:46:50;100395.06;;;20.19;72.26
13952;BME280;39535;52.192;9.886;2022-09-09T09:49:17;100414.19;;;20.24;71.99
13952;BME280;39535;52.192;9.886;2022-09-09T09:51:43;100419.38;;;20.26;71.03
13952;BME280;39535;52.192;9.886;2022-09-09T09:54:17;100418.00;;;20.34;70.87
13952;BME280;39535;52.192;9.886;2022-09-09T09:56:45;100487.50;;;20.39;68.95
13952;BME280;39535;52.192;9.886;2022-09-09T09:59:33;100529.78;;;20.27;68.00
13952;BME280;39535;52.192;9.886;2022-09-09T10:02:16;100533.97;;;19.84;67.14
13952;BME280;39535;52.192;9.886;2022-09-09T10:04:43;100507.72;;;19.80;69.00
13952;BME280;39535;52.192;9.886;2022-09-09T10:07:12;100484.44;;;19.69;69.18
13952;BME280;39535;52.192;9.886;2022-09-09T10:09:40;100423.06;;;19.78;71.60
13952;BME280;39535;52.192;9.886;2022-09-09T10:12:18;100425.69;;;19.78;70.36
13952;BME280;39535;52.192;9.886;2022-09-09T10:14:57;100388.06;;;19.88;70.69
13952;BME280;39535;52.192;9.886;2022-09-09T10:17:32;100406.53;;;19.89;69.99
13952;BME280;39535;52.192;9.886;2022-09-09T10:20:16;100412.81;;;20.02;69.55
13952;BME280;39535;52.192;9.886;2022-09-09T10:22:50;100425.34;;;20.15;69.57
13952;BME280;39535;52.192;9.886;2022-09-09T10:25:32;100442.47;;;20.23;69.51
13952;BME280;39535;52.192;9.886;2022-09-09T10:28:30;100439.50;;;20.44;67.68
13952;BME280;39535;52.192;9.886;2022-09-09T10:31:11;100599.53;;;20.59;63.51
13952;BME280;39535;52.192;9.886;2022-09-09T10:33:49;100689.63;;;20.76;62.80
13952;BME280;39535;52.192;9.886;2022-09-09T10:36:19;100725.50;;;20.68;61.08
13952;BME280;39535;52.192;9.886;2022-09-09T10:38:47;100721.66;;;20.73;62.20
13952;BME280;39535;52.192;9.886;2022-09-09T10:41:19;100662.25;;;20.76;64.32
13952;BME280;39535;52.192;9.886;2022-09-09T10:44:00;100702.44;;;20.84;61.63
13952;BME280;39535;52.192;9.886;2022-09-09T10:46:44;100782.91;;;20.85;58.60
13952;BME280;39535;52.192;9.886;2022-09-09T10:49:22;100810.47;;;20.98;58.11
13952;BME280;39535;52.192;9.886;2022-09-09T10:51:57;100796.84;;;21.04;58.52
13952;BME280;39535;52.192;9.886;2022-09-09T10:54:35;100785.81;;;20.96;59.13
13952;BME280;39535;52.192;9.886;2022-09-09T10:57:13;100764.13;;;21.03;61.08
13952;BME280;39535;52.192;9.886;2022-09-09T10:59:43;100719.50;;;21.10;59.48
13952;BME280;39535;52.192;9.886;2022-09-09T11:02:16;100743.41;;;21.10;59.27
13952;BME280;39535;52.192;9.886;2022-09-09T11:04:48;100725.78;;;21.09;59.49
13952;BME280;39535;52.192;9.886;2022-09-09T11:07:24;100678.69;;;20.97;61.75
13952;BME280;39535;52.192;9.886;2022-09-09T11:09:56;100642.66;;;20.93;61.91
13952;BME280;39535;52.192;9.886;2022-09-09T11:12:26;100617.94;;;20.92;61.87
13952;BME280;39535;52.192;9.886;2022-09-09T11:14:58;100598.97;;;20.84;63.00
13952;BME280;39535;52.192;9.886;2022-09-09T11:17:33;100573.56;;;20.80;63.67
13952;BME280;39535;52.192;9.886;2022-09-09T11:20:05;100520.03;;;20.73;64.05
13952;BME280;39535;52.192;9.886;2022-09-09T11:22:35;100518.47;;;20.69;64.02
13952;BME280;39535;52.192;9.886;2022-09-09T11:25:07;100521.03;;;20.71;64.52
13952;BME280;39535;52.192;9.886;2022-09-09T11:27:50;100505.78;;;20.74;65.17
13952;BME280;39535;52.192;9.886;2022-09-09T11:30:22;100513.66;;;20.76;64.46
13952;BME280;39535;52.192;9.886;2022-09-09T11:33:12;100594.16;;;20.60;62.83
13952;BME280;39535;52.192;9.886;2022-09-09T11:35:51;100595.00;;;20.61;63.22
13952;BME280;39535;52.192;9.886;2022-09-09T11:38:25;100525.19;;;20.60;65.01
13952;BME280;39535;52.192;9.886;2022-09-09T11:40:57;100506.56;;;20.46;65.16
13952;BME280;39535;52.192;9.886;2022-09-09T11:43:28;100488.47;;;20.08;67.10
13952;BME280;39535;52.192;9.886;2022-09-09T11:45:58;100338.50;;;19.90;71.52
13952;BME280;39535;52.192;9.886;2022-09-09T11:48:31;100240.06;;;19.37;72.22
13952;BME280;39535;52.192;9.886;2022-09-09T11:51:01;100175.09;;;19.17;73.78
13952;BME280;39535;52.192;9.886;2022-09-09T11:53:28;100176.78;;;19.18;73.49
13952;BME280;39535;52.192;9.886;2022-09-09T11:56:10;100159.00;;;19.20;74.16
13952;BME280;39535;52.192;9.886;2022-09-09T11:58:41;100120.66;;;18.82;76.45
13952;BME280;39535;52.192;9.886;2022-09-09T12:01:39;100111.59;;;18.71;76.53
13952;BME280;39535;52.192;9.886;2022-09-09T12:04:27;100119.84;;;18.34;76.65
13952;BME280;39535;52.192;9.886;2022-09-09T12:06:58;100128.56;;;18.20;75.64
13952;BME280;39535;52.192;9.886;2022-09-09T12:09:29;100125.56;;;18.26;76.85
13952;BME280;39535;52.192;9.886;2022-09-09T12:12:23;100128.28;;;18.25;76.49
13952;BME280;39535;52.192;9.886;2022-09-09T12:14:59;100114.81;;;18.45;76.60
13952;BME280;39535;52.192;9.886;2022-09-09T12:17:27;100092.50;;;18.81;77.71
13952;BME280;39535;52.192;9.886;2022-09-09T12:20:10;100167.66;;;18.93;75.10
13952;BME280;39535;52.192;9.886;2022-09-09T12:22:47;100173.47;;;19.14;75.33
13952;BME280;39535;52.192;9.886;2022-09-09T12:25:23;100199.00;;;19.15;74.71
13952;BME280;39535;52.192;9.886;2022-09-09T12:28:01;100202.31;;;19.19;74.06
13952;BME280;39535;52.192;9.886;2022-09-09T12:30:34;100230.53;;;19.18;74.39
13952;BME280;39535;52.192;9.886;2022-09-09T12:33:09;100229.66;;;19.03;73.97
13952;BME280;39535;52.192;9.886;2022-09-09T12:35:38;100221.84;;;19.16;74.54
13952;BME280;39535;52.192;9.886;2022-09-09T12:38:11;100198.34;;;19.26;75.40
13952;BME280;39535;52.192;9.886;2022-09-09T12:40:40;100199.25;;;19.11;74.56
13952;BME280;39535;52.192;9.886;2022-09-09T12:43:18;100174.25;;;19.00;75.90
13952;BME280;39535;52.192;9.886;2022-09-09T12:45:46;100150.84;;;19.09;76.22
13952;BME280;39535;52.192;9.886;2022-09-09T12:48:18;100129.84;;;18.91;76.74
13952;BME280;39535;52.192;9.886;2022-09-09T12:50:49;100121.09;;;19.05;77.11
13952;BME280;39535;52.192;9.886;2022-09-09T12:53:21;100103.66;;;19.17;77.77
13952;BME280;39535;52.192;9.886;2022-09-09T12:55:51;100110.00;;;19.29;77.54
13952;BME280;39535;52.192;9.886;2022-09-09T12:58:19;100133.91;;;19.41;76.88
13952;BME280;39535;52.192;9.886;2022-09-09T13:00:49;100094.22;;;19.41;80.08
13952;BME280;39535;52.192;9.886;2022-09-09T13:03:18;100155.94;;;19.42;76.59
13952;BME280;39535;52.192;9.886;2022-09-09T13:05:47;100170.69;;;19.46;76.37
13952;BME280;39535;52.192;9.886;2022-09-09T13:08:15;100133.66;;;19.60;77.72
13952;BME280;39535;52.192;9.886;2022-09-09T13:10:47;100123.94;;;19.75;77.39
13952;BME280;39535;52.192;9.886;2022-09-09T13:13:21;100121.19;;;19.77;76.94